Candler, North Carolina
Current Conditions -  °F | °C
As of 12:54 AM on Saturday 25 Oct 2014 (Local Time) from KAVL Reporting Station
Clear Clear  
Wind Chill: 43°   Ceiling: Unl
Heat Index: 46°   Visibility: 10mi
Dew Point: 39°   Wind: 6mph
Humidity: 76%   Direction: 10°N
Pressure: 30.07"   Gusts: NA
Location:  35.54°N, 82.65°W
Report Text: KAVL 250454Z AUTO 01005KT 10SM CLR 08/04 A3007 RMK AO2 SLP173 T00780039 401830039
Loading
Personal Weather Stations






























Interactive Weather Map
Tropical Storm Tracking
New forecast layout! Learn more

10-Day Weather Forecast

Advertisements
Track Severe Weather on mobile